Time,TemperatureF,DewpointF,PressureIn,WindDirection,WindDirectionDegrees,WindSpeedMPH,WindSpeedGustMPH,Humidity,HourlyPrecipIn,Conditions,Clouds,dailyrainin,SoftwareType,DateUTC
2013-08-19 00:00:00,63.5,56.8,30.13,SSE,157,0.0,0.0,79,0.00,,,-99.99,open2300 version1.11,2013-08-19 04:00:00,
2013-08-19 00:05:00,63.3,57.0,30.13,SSE,157,0.0,0.0,80,0.00,,,-99.99,open2300 version1.11,2013-08-19 04:05:00,
2013-08-19 00:10:00,63.3,57.0,30.13,SSE,157,0.0,0.0,80,0.00,,,-99.99,open2300 version1.11,2013-08-19 04:10:00,
2013-08-19 00:15:00,63.1,56.8,30.13,SSE,157,0.0,0.0,80,0.00,,,-99.99,open2300 version1.11,2013-08-19 04:15:00,
2013-08-19 00:20:00,63.1,56.8,30.13,SSE,157,0.0,0.0,80,0.00,,,-99.99,open2300 version1.11,2013-08-19 04:20:00,
2013-08-19 00:25:00,63.0,56.7,30.13,SSE,157,0.0,0.0,80,0.00,,,-99.99,open2300 version1.11,2013-08-19 04:25:00,
2013-08-19 00:30:00,62.8,56.5,30.13,SSE,157,0.0,0.0,80,0.00,,,-99.99,open2300 version1.11,2013-08-19 04:30:00,
2013-08-19 00:35:00,62.8,56.8,30.13,SSE,157,0.0,0.0,81,0.00,,,-99.99,open2300 version1.11,2013-08-19 04:35:00,
2013-08-19 00:40:00,62.4,56.5,30.13,SSE,157,0.0,0.0,81,0.00,,,-99.99,open2300 version1.11,2013-08-19 04:40:00,
2013-08-19 00:45:00,62.4,56.5,30.12,SSE,157,0.0,0.0,81,0.00,,,-99.99,open2300 version1.11,2013-08-19 04:45:00,
2013-08-19 00:50:00,62.4,56.5,30.12,SSE,157,0.0,0.0,81,0.00,,,-99.99,open2300 version1.11,2013-08-19 04:50:00,
2013-08-19 00:55:00,62.2,56.3,30.12,SSE,157,0.0,0.0,81,0.00,,,-99.99,open2300 version1.11,2013-08-19 04:55:00,
2013-08-19 01:05:00,62.2,56.3,30.12,SSE,157,0.0,0.0,81,0.00,,,-99.99,open2300 version1.11,2013-08-19 05:05:00,
2013-08-19 01:10:00,62.1,56.5,30.12,SSE,157,0.0,0.0,82,0.00,,,-99.99,open2300 version1.11,2013-08-19 05:10:00,
2013-08-19 01:15:00,61.9,56.0,30.12,SSE,157,0.0,0.0,81,0.00,,,-99.99,open2300 version1.11,2013-08-19 05:15:00,
2013-08-19 01:20:00,61.9,56.3,30.12,SSE,157,0.0,0.0,82,0.00,,,-99.99,open2300 version1.11,2013-08-19 05:20:00,
2013-08-19 01:25:00,61.9,56.3,30.12,SSE,157,0.0,0.0,82,0.00,,,-99.99,open2300 version1.11,2013-08-19 05:25:00,
2013-08-19 01:30:00,61.9,56.3,30.12,SSE,157,0.0,0.0,82,0.00,,,-99.99,open2300 version1.11,2013-08-19 05:30:00,
2013-08-19 01:35:00,61.9,56.3,30.12,SSE,157,0.0,0.0,82,0.00,,,-99.99,open2300 version1.11,2013-08-19 05:35:00,
2013-08-19 01:40:00,61.7,56.2,30.12,SSE,157,0.0,0.0,82,0.00,,,-99.99,open2300 version1.11,2013-08-19 05:40:00,
2013-08-19 01:45:00,61.5,56.0,30.11,SSE,157,0.0,0.0,82,0.00,,,-99.99,open2300 version1.11,2013-08-19 05:45:00,
2013-08-19 01:50:00,61.5,56.0,30.11,SSE,157,0.0,0.0,82,0.00,,,-99.99,open2300 version1.11,2013-08-19 05:50:00,
2013-08-19 01:55:00,61.5,56.0,30.12,SSE,157,0.0,0.0,82,0.00,,,-99.99,open2300 version1.11,2013-08-19 05:55:00,
2013-08-19 02:00:00,61.3,56.1,30.11,SSE,157,0.0,0.0,83,0.00,,,-99.99,open2300 version1.11,2013-08-19 06:00:00,
2013-08-19 02:05:00,61.3,56.1,30.11,SSE,157,0.0,0.0,83,0.00,,,-99.99,open2300 version1.11,2013-08-19 06:05:00,
2013-08-19 02:10:00,61.2,56.0,30.11,SSE,157,0.0,0.0,83,0.00,,,-99.99,open2300 version1.11,2013-08-19 06:10:00,
2013-08-19 02:15:00,61.0,55.8,30.12,SSE,157,0.0,0.0,83,0.00,,,-99.99,open2300 version1.11,2013-08-19 06:15:00,
2013-08-19 02:20:00,61.0,55.8,30.12,SSE,157,0.0,0.0,83,0.00,,,-99.99,open2300 version1.11,2013-08-19 06:20:00,
2013-08-19 02:25:00,61.0,55.8,30.11,SSE,157,0.0,0.0,83,0.00,,,-99.99,open2300 version1.11,2013-08-19 06:25:00,
2013-08-19 02:30:00,60.6,55.5,30.11,SSE,157,0.0,0.0,83,0.00,,,-99.99,open2300 version1.11,2013-08-19 06:30:00,
2013-08-19 02:35:00,60.6,55.5,30.11,SSE,157,0.0,0.0,83,0.00,,,-99.99,open2300 version1.11,2013-08-19 06:35:00,
2013-08-19 02:40:00,60.6,55.5,30.12,SSE,157,0.0,0.0,83,0.00,,,-99.99,open2300 version1.11,2013-08-19 06:40:00,
2013-08-19 02:45:00,60.6,55.5,30.11,SSE,157,0.0,0.0,83,0.00,,,-99.99,open2300 version1.11,2013-08-19 06:45:00,
2013-08-19 02:50:00,60.4,55.3,30.11,SSE,157,0.0,0.0,83,0.00,,,-99.99,open2300 version1.11,2013-08-19 06:50:00,
2013-08-19 02:55:00,60.4,55.6,30.11,SSE,157,0.0,0.0,84,0.00,,,-99.99,open2300 version1.11,2013-08-19 06:55:00,
2013-08-19 03:00:00,60.3,55.4,30.11,SSE,157,0.0,0.0,84,0.00,,,-99.99,open2300 version1.11,2013-08-19 07:00:00,
2013-08-19 03:05:00,60.1,55.3,30.11,SSE,157,0.0,0.0,84,0.00,,,-99.99,open2300 version1.11,2013-08-19 07:05:00,
2013-08-19 03:10:00,60.1,55.3,30.11,SSE,157,0.0,0.0,84,0.00,,,-99.99,open2300 version1.11,2013-08-19 07:10:00,
2013-08-19 03:15:00,60.1,55.3,30.11,SSE,157,0.0,0.0,84,0.00,,,-99.99,open2300 version1.11,2013-08-19 07:15:00,
2013-08-19 03:20:00,59.9,55.1,30.11,SSE,157,0.0,0.0,84,0.00,,,-99.99,open2300 version1.11,2013-08-19 07:20:00,
2013-08-19 03:25:00,59.7,54.9,30.11,SSE,157,0.0,0.0,84,0.00,,,-99.99,open2300 version1.11,2013-08-19 07:25:00,
2013-08-19 03:30:00,59.7,54.9,30.11,SSE,157,0.0,0.0,84,0.00,,,-99.99,open2300 version1.11,2013-08-19 07:30:00,
2013-08-19 03:35:00,59.7,54.9,30.11,SSE,157,0.0,0.0,84,0.00,,,-99.99,open2300 version1.11,2013-08-19 07:35:00,
2013-08-19 03:40:00,59.7,54.9,30.11,SSE,157,0.0,0.0,84,0.00,,,-99.99,open2300 version1.11,2013-08-19 07:40:00,
2013-08-19 03:45:00,59.5,54.7,30.11,SSE,157,0.0,0.0,84,0.00,,,-99.99,open2300 version1.11,2013-08-19 07:45:00,
2013-08-19 03:50:00,59.5,54.7,30.11,SSE,157,0.0,0.0,84,0.00,,,-99.99,open2300 version1.11,2013-08-19 07:50:00,
2013-08-19 03:55:00,59.4,54.5,30.11,SSE,157,0.0,0.0,84,0.00,,,-99.99,open2300 version1.11,2013-08-19 07:55:00,
2013-08-19 04:00:00,59.4,54.5,30.11,SSE,157,0.0,0.0,84,0.00,,,-99.99,open2300 version1.11,2013-08-19 08:00:00,
2013-08-19 04:05:00,59.4,54.5,30.11,SSE,157,0.0,0.0,84,0.00,,,-99.99,open2300 version1.11,2013-08-19 08:05:00,
2013-08-19 04:10:00,59.2,54.4,30.11,SSE,157,0.0,0.0,84,0.00,,,-99.99,open2300 version1.11,2013-08-19 08:10:00,
2013-08-19 04:15:00,59.2,54.4,30.11,SSE,157,0.0,0.0,84,0.00,,,-99.99,open2300 version1.11,2013-08-19 08:15:00,
2013-08-19 04:20:00,59.2,54.7,30.11,SSE,157,0.0,0.0,85,0.00,,,-99.99,open2300 version1.11,2013-08-19 08:20:00,
2013-08-19 04:25:00,59.0,54.2,30.10,SSE,157,0.0,0.0,84,0.00,,,-99.99,open2300 version1.11,2013-08-19 08:25:00,
2013-08-19 04:30:00,59.0,54.5,30.10,SSE,157,0.0,0.0,85,0.00,,,-99.99,open2300 version1.11,2013-08-19 08:30:00,
2013-08-19 04:35:00,58.8,54.3,30.11,SSE,157,0.0,0.0,85,0.00,,,-99.99,open2300 version1.11,2013-08-19 08:35:00,
2013-08-19 04:40:00,58.8,54.3,30.10,SSE,157,0.0,0.0,85,0.00,,,-99.99,open2300 version1.11,2013-08-19 08:40:00,
2013-08-19 04:45:00,58.8,54.3,30.10,SSE,157,0.0,0.0,85,0.00,,,-99.99,open2300 version1.11,2013-08-19 08:45:00,
2013-08-19 04:50:00,58.8,54.3,30.10,SSE,157,0.0,0.0,85,0.00,,,-99.99,open2300 version1.11,2013-08-19 08:50:00,
2013-08-19 04:55:00,58.8,54.3,30.11,SSE,157,0.0,0.0,85,0.00,,,-99.99,open2300 version1.11,2013-08-19 08:55:00,
2013-08-19 05:00:00,58.6,54.1,30.10,SSE,157,0.0,0.0,85,0.00,,,-99.99,open2300 version1.11,2013-08-19 09:00:00,
2013-08-19 05:05:00,58.6,54.1,30.10,SSE,157,0.0,0.0,85,0.00,,,-99.99,open2300 version1.11,2013-08-19 09:05:00,
2013-08-19 05:10:00,58.6,54.1,30.11,SSE,157,0.0,0.0,85,0.00,,,-99.99,open2300 version1.11,2013-08-19 09:10:00,
2013-08-19 05:15:00,58.5,54.0,30.10,SSE,157,0.0,0.0,85,0.00,,,-99.99,open2300 version1.11,2013-08-19 09:15:00,
2013-08-19 05:20:00,58.6,54.1,30.10,SSE,157,0.0,0.0,85,0.00,,,-99.99,open2300 version1.11,2013-08-19 09:20:00,
2013-08-19 05:25:00,58.5,54.0,30.11,SSE,157,0.0,0.0,85,0.00,,,-99.99,open2300 version1.11,2013-08-19 09:25:00,
2013-08-19 05:30:00,58.5,54.0,30.11,SSE,157,0.0,0.0,85,0.00,,,-99.99,open2300 version1.11,2013-08-19 09:30:00,
2013-08-19 05:35:00,58.3,53.8,30.11,SSE,157,0.0,0.0,85,0.00,,,-99.99,open2300 version1.11,2013-08-19 09:35:00,
2013-08-19 05:40:00,58.3,54.1,30.11,SSE,157,0.0,0.0,86,0.00,,,-99.99,open2300 version1.11,2013-08-19 09:40:00,
2013-08-19 05:45:00,58.3,54.1,30.11,SSE,157,0.0,0.0,86,0.00,,,-99.99,open2300 version1.11,2013-08-19 09:45:00,
2013-08-19 05:50:00,58.3,54.1,30.11,SSE,157,0.0,0.0,86,0.00,,,-99.99,open2300 version1.11,2013-08-19 09:50:00,
2013-08-19 05:55:00,58.3,54.1,30.11,SSE,157,0.0,0.0,86,0.00,,,-99.99,open2300 version1.11,2013-08-19 09:55:00,
2013-08-19 06:00:00,58.3,54.1,30.11,SSE,157,0.0,0.0,86,0.00,,,-99.99,open2300 version1.11,2013-08-19 10:00:00,
2013-08-19 06:05:00,58.1,53.9,30.11,SSE,157,0.0,0.0,86,0.00,,,-99.99,open2300 version1.11,2013-08-19 10:05:00,
2013-08-19 06:10:00,58.1,53.9,30.11,SSE,157,0.0,0.0,86,0.00,,,-99.99,open2300 version1.11,2013-08-19 10:10:00,
2013-08-19 06:15:00,58.1,53.9,30.11,SSE,157,0.0,0.0,86,0.00,,,-99.99,open2300 version1.11,2013-08-19 10:15:00,
2013-08-19 06:20:00,58.1,53.9,30.11,SSE,157,0.0,0.0,86,0.00,,,-99.99,open2300 version1.11,2013-08-19 10:20:00,
2013-08-19 06:25:00,57.9,53.7,30.11,SSE,157,0.0,0.0,86,0.00,,,-99.99,open2300 version1.11,2013-08-19 10:25:00,
2013-08-19 06:30:00,57.9,53.7,30.12,SSE,157,0.0,0.0,86,0.00,,,-99.99,open2300 version1.11,2013-08-19 10:30:00,
2013-08-19 06:35:00,57.9,53.7,30.11,SSE,157,0.0,0.0,86,0.00,,,-99.99,open2300 version1.11,2013-08-19 10:35:00,
2013-08-19 06:40:00,57.9,53.7,30.12,SSE,157,0.0,0.0,86,0.00,,,-99.99,open2300 version1.11,2013-08-19 10:40:00,
2013-08-19 06:45:00,57.9,53.7,30.12,SSE,157,0.0,0.0,86,0.00,,,-99.99,open2300 version1.11,2013-08-19 10:45:00,
2013-08-19 06:50:00,57.9,53.7,30.12,SSE,157,0.0,0.0,86,0.00,,,-99.99,open2300 version1.11,2013-08-19 10:50:00,
2013-08-19 06:55:00,57.9,53.7,30.12,SSE,157,0.0,0.0,86,0.00,,,-99.99,open2300 version1.11,2013-08-19 10:55:00,
2013-08-19 07:00:00,58.1,53.9,30.12,SSE,157,0.0,0.0,86,0.00,,,-99.99,open2300 version1.11,2013-08-19 11:00:00,
2013-08-19 07:05:00,58.1,53.9,30.12,SSE,157,0.0,0.0,86,0.00,,,-99.99,open2300 version1.11,2013-08-19 11:05:00,
2013-08-19 07:10:00,58.1,53.9,30.12,SSE,157,0.0,0.0,86,0.00,,,-99.99,open2300 version1.11,2013-08-19 11:10:00,
2013-08-19 07:15:00,58.1,53.9,30.12,SSE,157,0.0,0.0,86,0.00,,,-99.99,open2300 version1.11,2013-08-19 11:15:00,
2013-08-19 07:20:00,58.3,54.1,30.12,SSE,157,0.0,0.0,86,0.00,,,-99.99,open2300 version1.11,2013-08-19 11:20:00,
2013-08-19 07:25:00,58.3,54.4,30.12,SSE,157,0.0,0.0,87,0.00,,,-99.99,open2300 version1.11,2013-08-19 11:25:00,
2013-08-19 07:30:00,58.3,54.4,30.12,SSE,157,0.0,0.0,87,0.00,,,-99.99,open2300 version1.11,2013-08-19 11:30:00,
2013-08-19 07:35:00,58.5,54.6,30.12,SSE,157,0.0,0.0,87,0.00,,,-99.99,open2300 version1.11,2013-08-19 11:35:00,
2013-08-19 07:40:00,58.6,54.8,30.12,SSE,157,0.0,0.0,87,0.00,,,-99.99,open2300 version1.11,2013-08-19 11:40:00,
2013-08-19 07:45:00,58.8,55.0,30.12,SSE,157,0.0,0.0,87,0.00,,,-99.99,open2300 version1.11,2013-08-19 11:45:00,
2013-08-19 07:50:00,59.2,55.3,30.12,SSE,157,0.0,0.0,87,0.00,,,-99.99,open2300 version1.11,2013-08-19 11:50:00,
2013-08-19 07:55:00,59.5,55.7,30.12,SSE,157,0.0,0.0,87,0.00,,,-99.99,open2300 version1.11,2013-08-19 11:55:00,
2013-08-19 08:00:00,59.9,56.0,30.12,SSE,157,0.0,0.0,87,0.00,,,-99.99,open2300 version1.11,2013-08-19 12:00:00,
2013-08-19 08:05:00,60.1,56.2,30.12,SSE,157,0.0,0.0,87,0.00,,,-99.99,open2300 version1.11,2013-08-19 12:05:00,
2013-08-19 08:10:00,60.6,57.1,30.12,SSE,157,0.0,0.0,88,0.00,,,-99.99,open2300 version1.11,2013-08-19 12:10:00,
2013-08-19 08:15:00,61.0,57.4,30.12,SSE,157,0.0,0.0,88,0.00,,,-99.99,open2300 version1.11,2013-08-19 12:15:00,
2013-08-19 08:20:00,61.5,58.0,30.12,SSE,157,0.0,0.0,88,0.00,,,-99.99,open2300 version1.11,2013-08-19 12:20:00,
2013-08-19 08:25:00,61.9,58.3,30.12,SSE,157,0.0,0.0,88,0.00,,,-99.99,open2300 version1.11,2013-08-19 12:25:00,
2013-08-19 08:30:00,62.4,58.5,30.12,SSE,157,0.0,0.2,87,0.00,,,-99.99,open2300 version1.11,2013-08-19 12:30:00,
2013-08-19 08:35:00,63.0,58.7,30.13,SSE,157,0.0,0.7,86,0.00,,,-99.99,open2300 version1.11,2013-08-19 12:35:00,
2013-08-19 08:40:00,63.5,59.2,30.13,SSE,157,0.0,0.0,86,0.00,,,-99.99,open2300 version1.11,2013-08-19 12:40:00,
2013-08-19 08:45:00,63.9,59.3,30.13,SSE,157,0.0,0.0,85,0.00,,,-99.99,open2300 version1.11,2013-08-19 12:45:00,
2013-08-19 08:50:00,64.2,59.6,30.12,SSE,157,0.0,0.0,85,0.00,,,-99.99,open2300 version1.11,2013-08-19 12:50:00,
2013-08-19 08:55:00,64.6,59.6,30.12,SSE,157,0.0,0.0,84,0.00,,,-99.99,open2300 version1.11,2013-08-19 12:55:00,
2013-08-19 09:00:00,64.9,60.0,30.13,SSE,157,0.0,0.0,84,0.00,,,-99.99,open2300 version1.11,2013-08-19 13:00:00,
2013-08-19 09:05:00,65.1,60.1,30.13,SSE,157,0.0,0.0,84,0.00,,,-99.99,open2300 version1.11,2013-08-19 13:05:00,
2013-08-19 09:10:00,65.8,60.8,30.13,SSE,157,0.0,0.0,84,0.00,,,-99.99,open2300 version1.11,2013-08-19 13:10:00,
2013-08-19 09:15:00,66.0,60.7,30.12,SSE,157,0.0,0.0,83,0.00,,,-99.99,open2300 version1.11,2013-08-19 13:15:00,
2013-08-19 09:20:00,66.4,60.7,30.12,SSE,157,0.0,0.0,82,0.00,,,-99.99,open2300 version1.11,2013-08-19 13:20:00,
2013-08-19 09:25:00,66.7,61.1,30.12,SSE,157,0.0,0.0,82,0.00,,,-99.99,open2300 version1.11,2013-08-19 13:25:00,
2013-08-19 09:30:00,67.1,61.1,30.12,SSE,157,0.0,0.0,81,0.00,,,-99.99,open2300 version1.11,2013-08-19 13:30:00,
2013-08-19 09:35:00,67.5,61.5,30.12,SSE,157,0.0,0.0,81,0.00,,,-99.99,open2300 version1.11,2013-08-19 13:35:00,
2013-08-19 09:40:00,67.8,61.5,30.12,SSE,157,0.0,0.0,80,0.00,,,-99.99,open2300 version1.11,2013-08-19 13:40:00,
2013-08-19 09:45:00,68.2,61.9,30.12,SSE,157,0.0,0.0,80,0.00,,,-99.99,open2300 version1.11,2013-08-19 13:45:00,
2013-08-19 09:50:00,68.4,61.6,30.12,SSE,157,0.0,0.0,79,0.00,,,-99.99,open2300 version1.11,2013-08-19 13:50:00,
2013-08-19 09:55:00,68.7,62.0,30.12,SSE,157,0.0,0.0,79,0.00,,,-99.99,open2300 version1.11,2013-08-19 13:55:00,
2013-08-19 10:00:00,68.9,62.1,30.12,SSE,157,0.0,0.0,79,0.00,,,-99.99,open2300 version1.11,2013-08-19 14:00:00,
2013-08-19 10:05:00,69.1,61.9,30.12,SSE,157,0.0,0.0,78,0.00,,,-99.99,open2300 version1.11,2013-08-19 14:05:00,
2013-08-19 10:10:00,69.4,62.2,30.12,SSE,157,0.0,0.0,78,0.00,,,-99.99,open2300 version1.11,2013-08-19 14:10:00,
2013-08-19 10:15:00,69.6,62.4,30.11,SSE,157,0.0,0.0,78,0.00,,,-99.99,open2300 version1.11,2013-08-19 14:15:00,
2013-08-19 10:20:00,70.0,62.4,30.12,SSE,157,0.0,0.0,77,0.00,,,-99.99,open2300 version1.11,2013-08-19 14:20:00,
2013-08-19 10:25:00,70.3,62.7,30.12,SSE,157,0.0,0.0,77,0.00,,,-99.99,open2300 version1.11,2013-08-19 14:25:00,
2013-08-19 10:30:00,70.9,63.3,30.12,SSE,157,0.0,0.0,77,0.00,,,-99.99,open2300 version1.11,2013-08-19 14:30:00,
2013-08-19 10:35:00,71.2,63.2,30.12,SSE,157,0.0,0.0,76,0.00,,,-99.99,open2300 version1.11,2013-08-19 14:35:00,
2013-08-19 10:40:00,71.4,63.4,30.12,SSE,157,0.0,0.0,76,0.00,,,-99.99,open2300 version1.11,2013-08-19 14:40:00,
2013-08-19 10:45:00,72.0,64.0,30.11,SSE,157,0.0,0.0,76,0.00,,,-99.99,open2300 version1.11,2013-08-19 14:45:00,
2013-08-19 10:50:00,72.3,64.0,30.11,SSE,157,0.0,0.0,75,0.00,,,-99.99,open2300 version1.11,2013-08-19 14:50:00,
2013-08-19 10:55:00,72.7,63.9,30.12,SSE,157,0.0,0.7,74,0.00,,,-99.99,open2300 version1.11,2013-08-19 14:55:00,
2013-08-19 11:00:00,72.9,64.1,30.11,SSE,157,0.0,0.0,74,0.00,,,-99.99,open2300 version1.11,2013-08-19 15:00:00,
2013-08-19 11:05:00,73.2,64.1,30.11,SSE,157,0.0,0.0,73,0.00,,,-99.99,open2300 version1.11,2013-08-19 15:05:00,
2013-08-19 11:10:00,73.6,64.4,30.11,South,180,0.0,0.7,73,0.00,,,-99.99,open2300 version1.11,2013-08-19 15:10:00,
2013-08-19 11:15:00,73.8,64.2,30.11,South,180,0.0,0.0,72,0.00,,,-99.99,open2300 version1.11,2013-08-19 15:15:00,
2013-08-19 11:20:00,74.1,64.2,30.11,South,180,0.0,0.0,71,0.00,,,-99.99,open2300 version1.11,2013-08-19 15:20:00,
2013-08-19 11:25:00,74.3,64.0,30.10,South,180,0.1,0.9,70,0.00,,,-99.99,open2300 version1.11,2013-08-19 15:25:00,
2013-08-19 11:30:00,74.5,63.7,30.10,South,180,0.0,0.7,69,0.00,,,-99.99,open2300 version1.11,2013-08-19 15:30:00,
2013-08-19 11:35:00,74.8,64.0,30.10,South,180,0.0,0.0,69,0.00,,,-99.99,open2300 version1.11,2013-08-19 15:35:00,
2013-08-19 11:40:00,75.0,63.7,30.10,South,180,0.3,1.6,68,0.00,,,-99.99,open2300 version1.11,2013-08-19 15:40:00,
2013-08-19 11:45:00,75.4,63.2,30.10,SSW,197,0.7,2.5,66,0.00,,,-99.99,open2300 version1.11,2013-08-19 15:45:00,
2013-08-19 11:50:00,75.7,63.5,30.10,SSW,202,0.5,1.3,66,0.00,,,-99.99,open2300 version1.11,2013-08-19 15:50:00,
2013-08-19 11:55:00,75.9,63.7,30.10,SSE,163,0.3,3.6,66,0.00,,,-99.99,open2300 version1.11,2013-08-19 15:55:00,
2013-08-19 12:00:00,76.1,63.5,30.10,SSE,157,0.0,0.0,65,0.00,,,-99.99,open2300 version1.11,2013-08-19 16:00:00,
2013-08-19 12:05:00,76.3,63.2,30.10,South,190,0.5,2.7,64,0.00,,,-99.99,open2300 version1.11,2013-08-19 16:05:00,
2013-08-19 12:10:00,76.6,63.1,30.10,SW,221,1.9,4.2,63,0.00,,,-99.99,open2300 version1.11,2013-08-19 16:10:00,
2013-08-19 12:15:00,76.8,62.8,30.10,SW,225,1.1,3.6,62,0.00,,,-99.99,open2300 version1.11,2013-08-19 16:15:00,
2013-08-19 12:20:00,76.8,62.3,30.10,SW,225,1.6,3.1,61,0.00,,,-99.99,open2300 version1.11,2013-08-19 16:20:00,
2013-08-19 12:25:00,76.8,62.3,30.10,SW,225,0.6,2.0,61,0.00,,,-99.99,open2300 version1.11,2013-08-19 16:25:00,
2013-08-19 12:30:00,77.0,62.5,30.11,SW,225,0.9,2.7,61,0.00,,,-99.99,open2300 version1.11,2013-08-19 16:30:00,
2013-08-19 12:35:00,77.2,62.7,30.10,SW,223,0.3,1.6,61,0.00,,,-99.99,open2300 version1.11,2013-08-19 16:35:00,
2013-08-19 12:40:00,77.4,62.4,30.11,SW,215,0.8,3.1,60,0.00,,,-99.99,open2300 version1.11,2013-08-19 16:40:00,
2013-08-19 12:45:00,77.5,62.1,30.11,SW,225,1.1,3.4,59,0.00,,,-99.99,open2300 version1.11,2013-08-19 16:45:00,
2013-08-19 12:50:00,77.9,61.9,30.11,SW,224,0.8,2.7,58,0.00,,,-99.99,open2300 version1.11,2013-08-19 16:50:00,
2013-08-19 12:55:00,78.1,61.6,30.11,SW,220,1.1,3.4,57,0.00,,,-99.99,open2300 version1.11,2013-08-19 16:55:00,
2013-08-19 13:00:00,78.3,60.2,30.10,SSW,209,0.5,2.2,54,0.00,,,-99.99,open2300 version1.11,2013-08-19 17:00:00,
2013-08-19 13:05:00,78.4,60.9,30.10,SSW,192,0.2,1.3,55,0.00,,,-99.99,open2300 version1.11,2013-08-19 17:05:00,
2013-08-19 13:10:00,78.6,60.5,30.10,South,180,0.2,1.1,54,0.00,,,-99.99,open2300 version1.11,2013-08-19 17:10:00,
2013-08-19 13:15:00,79.0,60.9,30.10,South,180,0.1,0.9,54,0.00,,,-99.99,open2300 version1.11,2013-08-19 17:15:00,
2013-08-19 13:20:00,79.3,60.7,30.10,SSW,201,1.5,3.8,53,0.00,,,-99.99,open2300 version1.11,2013-08-19 17:20:00,
2013-08-19 13:25:00,79.5,60.9,30.10,SSW,202,0.5,1.6,53,0.00,,,-99.99,open2300 version1.11,2013-08-19 17:25:00,
2013-08-19 13:30:00,79.7,61.0,30.10,South,180,0.0,0.7,53,0.00,,,-99.99,open2300 version1.11,2013-08-19 17:30:00,
2013-08-19 13:35:00,80.1,61.3,30.10,SSE,157,0.0,0.7,53,0.00,,,-99.99,open2300 version1.11,2013-08-19 17:35:00,
2013-08-19 13:40:00,80.2,61.0,30.09,SW,224,1.2,4.2,52,0.00,,,-99.99,open2300 version1.11,2013-08-19 17:40:00,
2013-08-19 13:45:00,80.4,60.6,30.09,SSW,212,1.1,5.4,51,0.00,,,-99.99,open2300 version1.11,2013-08-19 17:45:00,
2013-08-19 13:50:00,80.6,59.6,30.09,SSW,213,0.8,3.1,49,0.00,,,-99.99,open2300 version1.11,2013-08-19 17:50:00,
2013-08-19 13:55:00,80.8,59.8,30.09,SW,218,1.3,4.5,49,0.00,,,-99.99,open2300 version1.11,2013-08-19 17:55:00,
2013-08-19 14:00:00,81.1,60.1,30.09,SW,225,0.3,1.3,49,0.00,,,-99.99,open2300 version1.11,2013-08-19 18:00:00,
2013-08-19 14:05:00,81.3,59.7,30.09,SSW,209,0.5,2.7,48,0.00,,,-99.99,open2300 version1.11,2013-08-19 18:05:00,
2013-08-19 14:10:00,81.3,59.1,30.09,SW,220,0.7,2.7,47,0.00,,,-99.99,open2300 version1.11,2013-08-19 18:10:00,
2013-08-19 14:15:00,81.5,59.2,30.09,SW,220,1.0,3.1,47,0.00,,,-99.99,open2300 version1.11,2013-08-19 18:15:00,
2013-08-19 14:20:00,81.7,59.4,30.09,SW,225,1.5,4.5,47,0.00,,,-99.99,open2300 version1.11,2013-08-19 18:20:00,
2013-08-19 14:25:00,81.9,60.2,30.09,SW,225,1.1,3.1,48,0.00,,,-99.99,open2300 version1.11,2013-08-19 18:25:00,
2013-08-19 14:30:00,82.0,59.1,30.09,SSW,204,0.8,3.8,46,0.00,,,-99.99,open2300 version1.11,2013-08-19 18:30:00,
2013-08-19 14:35:00,82.2,58.7,30.09,SSW,202,0.9,4.2,45,0.00,,,-99.99,open2300 version1.11,2013-08-19 18:35:00,
2013-08-19 14:40:00,82.2,59.3,30.09,SW,225,2.0,4.0,46,0.00,,,-99.99,open2300 version1.11,2013-08-19 18:40:00,
2013-08-19 14:45:00,82.2,59.3,30.09,SW,225,0.3,2.7,46,0.00,,,-99.99,open2300 version1.11,2013-08-19 18:45:00,
2013-08-19 14:50:00,82.6,59.6,30.09,SW,225,0.7,2.9,46,0.00,,,-99.99,open2300 version1.11,2013-08-19 18:50:00,
2013-08-19 14:55:00,82.6,59.6,30.09,SW,225,0.5,2.0,46,0.00,,,-99.99,open2300 version1.11,2013-08-19 18:55:00,
2013-08-19 15:00:00,82.8,59.8,30.09,SW,225,0.3,1.6,46,0.00,,,-99.99,open2300 version1.11,2013-08-19 19:00:00,
2013-08-19 15:05:00,82.8,59.8,30.08,SW,225,1.0,3.1,46,0.00,,,-99.99,open2300 version1.11,2013-08-19 19:05:00,
2013-08-19 15:10:00,82.9,59.9,30.08,SW,225,0.5,2.7,46,0.00,,,-99.99,open2300 version1.11,2013-08-19 19:10:00,
2013-08-19 15:15:00,82.9,59.3,30.08,SW,218,0.8,2.7,45,0.00,,,-99.99,open2300 version1.11,2013-08-19 19:15:00,
2013-08-19 15:20:00,82.9,59.3,30.08,SW,219,1.2,3.1,45,0.00,,,-99.99,open2300 version1.11,2013-08-19 19:20:00,
2013-08-19 15:25:00,83.1,58.9,30.08,SSW,210,0.2,2.0,44,0.00,,,-99.99,open2300 version1.11,2013-08-19 19:25:00,
2013-08-19 15:30:00,83.1,58.9,30.08,SW,225,0.0,0.0,44,0.00,,,-99.99,open2300 version1.11,2013-08-19 19:30:00,
2013-08-19 15:35:00,82.9,58.7,30.08,SSW,206,0.4,2.5,44,0.00,,,-99.99,open2300 version1.11,2013-08-19 19:35:00,
2013-08-19 15:40:00,82.9,58.7,30.08,South,173,0.9,3.1,44,0.00,,,-99.99,open2300 version1.11,2013-08-19 19:40:00,
2013-08-19 15:45:00,82.6,58.4,30.08,South,172,0.7,3.4,44,0.00,,,-99.99,open2300 version1.11,2013-08-19 19:45:00,
2013-08-19 15:50:00,82.6,59.0,30.08,South,189,0.2,1.6,45,0.00,,,-99.99,open2300 version1.11,2013-08-19 19:50:00,
2013-08-19 15:55:00,82.6,59.0,30.07,SSE,157,0.5,1.8,45,0.00,,,-99.99,open2300 version1.11,2013-08-19 19:55:00,
2013-08-19 16:00:00,82.4,58.8,30.07,SSE,157,0.2,2.2,45,0.00,,,-99.99,open2300 version1.11,2013-08-19 20:00:00,
2013-08-19 16:05:00,82.6,59.0,30.06,South,173,0.6,2.9,45,0.00,,,-99.99,open2300 version1.11,2013-08-19 20:05:00,
2013-08-19 16:10:00,82.2,59.3,30.06,SSE,157,0.1,1.1,46,0.00,,,-99.99,open2300 version1.11,2013-08-19 20:10:00,
2013-08-19 16:15:00,82.6,59.6,30.06,SSE,157,0.1,0.9,46,0.00,,,-99.99,open2300 version1.11,2013-08-19 20:15:00,
2013-08-19 16:20:00,82.2,59.9,30.07,SSE,157,0.4,1.8,47,0.00,,,-99.99,open2300 version1.11,2013-08-19 20:20:00,
2013-08-19 16:25:00,82.2,59.9,30.06,South,176,0.7,2.7,47,0.00,,,-99.99,open2300 version1.11,2013-08-19 20:25:00,
2013-08-19 16:30:00,82.2,59.3,30.06,SSW,198,0.8,2.5,46,0.00,,,-99.99,open2300 version1.11,2013-08-19 20:30:00,
2013-08-19 16:35:00,82.0,59.1,30.06,South,171,0.4,2.2,46,0.00,,,-99.99,open2300 version1.11,2013-08-19 20:35:00,
2013-08-19 16:40:00,82.0,59.1,30.06,SSW,202,0.2,2.2,46,0.00,,,-99.99,open2300 version1.11,2013-08-19 20:40:00,
2013-08-19 16:45:00,81.7,58.8,30.06,South,184,0.7,3.1,46,0.00,,,-99.99,open2300 version1.11,2013-08-19 20:45:00,
2013-08-19 16:50:00,81.7,58.8,30.06,SSE,157,0.4,2.0,46,0.00,,,-99.99,open2300 version1.11,2013-08-19 20:50:00,
2013-08-19 16:55:00,81.3,59.1,30.06,SSE,157,0.2,1.8,47,0.00,,,-99.99,open2300 version1.11,2013-08-19 20:55:00,
2013-08-19 17:00:00,81.3,59.1,30.06,SSE,157,0.4,1.6,47,0.00,,,-99.99,open2300 version1.11,2013-08-19 21:00:00,
2013-08-19 17:05:00,81.1,58.9,30.06,SSE,157,0.3,1.3,47,0.00,,,-99.99,open2300 version1.11,2013-08-19 21:05:00,
2013-08-19 17:10:00,81.1,59.5,30.06,SSE,157,0.2,1.3,48,0.00,,,-99.99,open2300 version1.11,2013-08-19 21:10:00,
2013-08-19 17:15:00,81.0,59.4,30.06,SSE,157,0.6,1.8,48,0.00,,,-99.99,open2300 version1.11,2013-08-19 21:15:00,
2013-08-19 17:20:00,80.8,59.8,30.06,SSE,157,0.5,2.0,49,0.00,,,-99.99,open2300 version1.11,2013-08-19 21:20:00,
2013-08-19 17:25:00,80.8,59.8,30.06,SSE,157,0.5,1.6,49,0.00,,,-99.99,open2300 version1.11,2013-08-19 21:25:00,
2013-08-19 17:30:00,80.6,59.6,30.06,SW,220,1.3,3.1,49,0.00,,,-99.99,open2300 version1.11,2013-08-19 21:30:00,
2013-08-19 17:35:00,80.4,59.5,30.06,SW,225,0.8,3.6,49,0.00,,,-99.99,open2300 version1.11,2013-08-19 21:35:00,
2013-08-19 17:40:00,80.4,59.5,30.06,SSW,196,0.6,2.5,49,0.00,,,-99.99,open2300 version1.11,2013-08-19 21:40:00,
2013-08-19 17:45:00,80.2,59.3,30.06,SSW,208,0.7,2.9,49,0.00,,,-99.99,open2300 version1.11,2013-08-19 21:45:00,
2013-08-19 17:50:00,80.2,59.9,30.06,SW,218,0.6,2.2,50,0.00,,,-99.99,open2300 version1.11,2013-08-19 21:50:00,
2013-08-19 17:55:00,79.9,59.6,30.06,SSE,157,0.6,2.5,50,0.00,,,-99.99,open2300 version1.11,2013-08-19 21:55:00,
2013-08-19 18:00:00,79.9,59.6,30.06,South,186,0.4,2.0,50,0.00,,,-99.99,open2300 version1.11,2013-08-19 22:00:00,
2013-08-19 18:05:00,79.9,59.6,30.06,SSW,199,0.6,2.0,50,0.00,,,-99.99,open2300 version1.11,2013-08-19 22:05:00,
2013-08-19 18:10:00,79.7,60.0,30.05,South,176,0.5,1.8,51,0.00,,,-99.99,open2300 version1.11,2013-08-19 22:10:00,
2013-08-19 18:15:00,79.5,59.8,30.05,SSE,157,0.2,1.3,51,0.00,,,-99.99,open2300 version1.11,2013-08-19 22:15:00,
2013-08-19 18:20:00,79.5,59.8,30.06,South,191,0.8,3.4,51,0.00,,,-99.99,open2300 version1.11,2013-08-19 22:20:00,
2013-08-19 18:25:00,79.3,59.6,30.05,SW,225,0.6,2.7,51,0.00,,,-99.99,open2300 version1.11,2013-08-19 22:25:00,
2013-08-19 18:30:00,79.0,59.9,30.05,SW,225,0.2,1.1,52,0.00,,,-99.99,open2300 version1.11,2013-08-19 22:30:00,
2013-08-19 18:35:00,79.0,59.9,30.05,SW,225,0.1,1.1,52,0.00,,,-99.99,open2300 version1.11,2013-08-19 22:35:00,
2013-08-19 18:40:00,78.6,60.0,30.05,SW,225,0.1,0.9,53,0.00,,,-99.99,open2300 version1.11,2013-08-19 22:40:00,
2013-08-19 18:45:00,78.4,59.9,30.05,SW,225,0.0,0.0,53,0.00,,,-99.99,open2300 version1.11,2013-08-19 22:45:00,
2013-08-19 18:50:00,78.4,60.4,30.05,SW,225,0.0,0.0,54,0.00,,,-99.99,open2300 version1.11,2013-08-19 22:50:00,
2013-08-19 18:55:00,78.1,60.0,30.05,SW,225,0.1,0.9,54,0.00,,,-99.99,open2300 version1.11,2013-08-19 22:55:00,
2013-08-19 19:00:00,77.9,60.4,30.05,SW,225,0.0,0.0,55,0.00,,,-99.99,open2300 version1.11,2013-08-19 23:00:00,
2013-08-19 19:05:00,77.5,60.0,30.05,SW,225,0.0,0.9,55,0.00,,,-99.99,open2300 version1.11,2013-08-19 23:05:00,
2013-08-19 19:10:00,77.4,60.4,30.05,SW,225,0.0,0.0,56,0.00,,,-99.99,open2300 version1.11,2013-08-19 23:10:00,
2013-08-19 19:15:00,77.2,60.2,30.05,SW,225,0.0,0.0,56,0.00,,,-99.99,open2300 version1.11,2013-08-19 23:15:00,
2013-08-19 19:20:00,77.0,60.5,30.05,SW,225,0.0,0.0,57,0.00,,,-99.99,open2300 version1.11,2013-08-19 23:20:00,
2013-08-19 19:25:00,76.8,60.4,30.05,SW,225,0.0,0.0,57,0.00,,,-99.99,open2300 version1.11,2013-08-19 23:25:00,
2013-08-19 19:30:00,76.5,60.6,30.05,SW,225,0.0,0.0,58,0.00,,,-99.99,open2300 version1.11,2013-08-19 23:30:00,
2013-08-19 19:35:00,76.3,60.4,30.05,SW,225,0.0,0.0,58,0.00,,,-99.99,open2300 version1.11,2013-08-19 23:35:00,
2013-08-19 19:40:00,75.9,60.1,30.06,SW,225,0.0,0.0,58,0.00,,,-99.99,open2300 version1.11,2013-08-19 23:40:00,
2013-08-19 19:45:00,75.7,60.4,30.05,SW,225,0.0,0.0,59,0.00,,,-99.99,open2300 version1.11,2013-08-19 23:45:00,
2013-08-19 19:50:00,75.4,60.1,30.05,SW,225,0.0,0.0,59,0.00,,,-99.99,open2300 version1.11,2013-08-19 23:50:00,
2013-08-19 19:55:00,75.0,60.3,30.05,SW,225,0.0,0.0,60,0.00,,,-99.99,open2300 version1.11,2013-08-19 23:55:00,
2013-08-19 20:00:00,74.8,60.1,30.05,SW,225,0.0,0.0,60,0.00,,,-99.99,open2300 version1.11,2013-08-20 00:00:00,
2013-08-19 20:05:00,74.5,59.7,30.05,SW,225,0.0,0.0,60,0.00,,,-99.99,open2300 version1.11,2013-08-20 00:05:00,
2013-08-19 20:10:00,74.3,60.0,30.05,SW,225,0.0,0.0,61,0.00,,,-99.99,open2300 version1.11,2013-08-20 00:10:00,
2013-08-19 20:15:00,73.9,60.1,30.04,SW,225,0.0,0.0,62,0.00,,,-99.99,open2300 version1.11,2013-08-20 00:15:00,
2013-08-19 20:20:00,73.6,59.7,30.04,SW,225,0.0,0.0,62,0.00,,,-99.99,open2300 version1.11,2013-08-20 00:20:00,
2013-08-19 20:25:00,73.2,59.8,30.04,SW,225,0.0,0.0,63,0.00,,,-99.99,open2300 version1.11,2013-08-20 00:25:00,
2013-08-19 20:30:00,73.0,60.1,30.04,SW,225,0.0,0.0,64,0.00,,,-99.99,open2300 version1.11,2013-08-20 00:30:00,
2013-08-19 20:35:00,72.7,59.8,30.04,SW,225,0.0,0.0,64,0.00,,,-99.99,open2300 version1.11,2013-08-20 00:35:00,
2013-08-19 20:40:00,72.3,59.9,30.04,SW,225,0.0,0.0,65,0.00,,,-99.99,open2300 version1.11,2013-08-20 00:40:00,
2013-08-19 20:45:00,71.8,59.3,30.05,SW,225,0.0,0.0,65,0.00,,,-99.99,open2300 version1.11,2013-08-20 00:45:00,
2013-08-19 20:50:00,71.4,59.4,30.05,SW,225,0.0,0.0,66,0.00,,,-99.99,open2300 version1.11,2013-08-20 00:50:00,
2013-08-19 20:55:00,71.2,59.7,30.05,SW,225,0.0,0.0,67,0.00,,,-99.99,open2300 version1.11,2013-08-20 00:55:00,
2013-08-19 21:00:00,70.7,59.2,30.04,SW,225,0.0,0.0,67,0.00,,,-99.99,open2300 version1.11,2013-08-20 01:00:00,
2013-08-19 21:05:00,70.5,59.4,30.05,SW,225,0.0,0.0,68,0.00,,,-99.99,open2300 version1.11,2013-08-20 01:05:00,
2013-08-19 21:10:00,70.2,59.0,30.05,SW,225,0.0,0.0,68,0.00,,,-99.99,open2300 version1.11,2013-08-20 01:10:00,
2013-08-19 21:15:00,69.6,58.5,30.05,SW,225,0.0,0.0,68,0.00,,,-99.99,open2300 version1.11,2013-08-20 01:15:00,
2013-08-19 21:20:00,69.4,58.8,30.05,SW,225,0.0,0.0,69,0.00,,,-99.99,open2300 version1.11,2013-08-20 01:20:00,
2013-08-19 21:25:00,69.1,58.9,30.06,SW,225,0.0,0.0,70,0.00,,,-99.99,open2300 version1.11,2013-08-20 01:25:00,
2013-08-19 21:30:00,68.9,58.7,30.06,SW,225,0.0,0.0,70,0.00,,,-99.99,open2300 version1.11,2013-08-20 01:30:00,
2013-08-19 21:35:00,68.5,58.4,30.06,SW,225,0.0,0.0,70,0.00,,,-99.99,open2300 version1.11,2013-08-20 01:35:00,
2013-08-19 21:40:00,68.4,58.6,30.06,SW,225,0.0,0.0,71,0.00,,,-99.99,open2300 version1.11,2013-08-20 01:40:00,
2013-08-19 21:45:00,68.2,58.5,30.06,SW,225,0.0,0.0,71,0.00,,,-99.99,open2300 version1.11,2013-08-20 01:45:00,
2013-08-19 21:50:00,67.8,58.5,30.06,SW,225,0.0,0.0,72,0.00,,,-99.99,open2300 version1.11,2013-08-20 01:50:00,
2013-08-19 21:55:00,67.8,58.5,30.06,SW,225,0.0,0.0,72,0.00,,,-99.99,open2300 version1.11,2013-08-20 01:55:00,
2013-08-19 22:00:00,67.6,58.3,30.07,SW,225,0.0,0.0,72,0.00,,,-99.99,open2300 version1.11,2013-08-20 02:00:00,
2013-08-19 22:05:00,67.3,58.3,30.07,SW,225,0.0,0.0,73,0.00,,,-99.99,open2300 version1.11,2013-08-20 02:05:00,
2013-08-19 22:10:00,67.3,58.3,30.07,SW,225,0.0,0.0,73,0.00,,,-99.99,open2300 version1.11,2013-08-20 02:10:00,
2013-08-19 22:15:00,67.1,58.1,30.06,SW,225,0.0,0.0,73,0.00,,,-99.99,open2300 version1.11,2013-08-20 02:15:00,
2013-08-19 22:20:00,66.9,58.4,30.06,SW,225,0.0,0.0,74,0.00,,,-99.99,open2300 version1.11,2013-08-20 02:20:00,
2013-08-19 22:25:00,66.7,58.2,30.07,SW,225,0.0,0.0,74,0.00,,,-99.99,open2300 version1.11,2013-08-20 02:25:00,
2013-08-19 22:30:00,66.7,58.2,30.07,SW,225,0.0,0.0,74,0.00,,,-99.99,open2300 version1.11,2013-08-20 02:30:00,
2013-08-19 22:35:00,66.4,58.2,30.07,SW,225,0.0,0.0,75,0.00,,,-99.99,open2300 version1.11,2013-08-20 02:35:00,
2013-08-19 22:40:00,66.4,58.2,30.07,SW,225,0.0,0.0,75,0.00,,,-99.99,open2300 version1.11,2013-08-20 02:40:00,
2013-08-19 22:45:00,66.0,57.8,30.06,SW,225,0.0,0.0,75,0.00,,,-99.99,open2300 version1.11,2013-08-20 02:45:00,
2013-08-19 22:50:00,66.0,57.8,30.07,SW,225,0.0,0.0,75,0.00,,,-99.99,open2300 version1.11,2013-08-20 02:50:00,
2013-08-19 22:55:00,65.8,58.0,30.07,SW,225,0.0,0.0,76,0.00,,,-99.99,open2300 version1.11,2013-08-20 02:55:00,
2013-08-19 23:00:00,65.8,58.0,30.07,SW,225,0.0,0.0,76,0.00,,,-99.99,open2300 version1.11,2013-08-20 03:00:00,
2013-08-19 23:05:00,65.5,58.1,30.07,SW,225,0.0,0.0,77,0.00,,,-99.99,open2300 version1.11,2013-08-20 03:05:00,
2013-08-19 23:10:00,65.5,58.1,30.07,SW,225,0.0,0.0,77,0.00,,,-99.99,open2300 version1.11,2013-08-20 03:10:00,
2013-08-19 23:15:00,65.1,57.7,30.07,SW,225,0.0,0.0,77,0.00,,,-99.99,open2300 version1.11,2013-08-20 03:15:00,
2013-08-19 23:20:00,65.1,57.7,30.07,SW,225,0.0,0.0,77,0.00,,,-99.99,open2300 version1.11,2013-08-20 03:20:00,
2013-08-19 23:25:00,64.9,57.5,30.07,SW,225,0.0,0.0,77,0.00,,,-99.99,open2300 version1.11,2013-08-20 03:25:00,
2013-08-19 23:30:00,64.9,57.9,30.07,SW,225,0.0,0.0,78,0.00,,,-99.99,open2300 version1.11,2013-08-20 03:30:00,
2013-08-19 23:35:00,64.8,57.7,30.07,SW,225,0.0,0.0,78,0.00,,,-99.99,open2300 version1.11,2013-08-20 03:35:00,
2013-08-19 23:40:00,64.6,57.9,30.07,SW,225,0.0,0.0,79,0.00,,,-99.99,open2300 version1.11,2013-08-20 03:40:00,
2013-08-19 23:45:00,64.6,57.9,30.07,SW,225,0.0,0.0,79,0.00,,,-99.99,open2300 version1.11,2013-08-20 03:45:00,
2013-08-19 23:50:00,64.2,57.6,30.07,SW,225,0.0,0.0,79,0.00,,,-99.99,open2300 version1.11,2013-08-20 03:50:00,
2013-08-19 23:55:00,64.2,57.6,30.07,SW,225,0.0,0.0,79,0.00,,,-99.99,open2300 version1.11,2013-08-20 03:55:00,